createdAt,value
2023-03-14T00:00:51.314Z,980
2023-03-14T00:01:51.330Z,980
2023-03-14T00:02:51.404Z,980
2023-03-14T00:03:51.314Z,980
2023-03-14T00:04:51.317Z,980
2023-03-14T00:05:51.324Z,980
2023-03-14T00:06:51.319Z,980
2023-03-14T00:07:51.314Z,980
2023-03-14T00:08:51.316Z,980
2023-03-14T00:09:51.329Z,980
2023-03-14T00:10:51.305Z,980
2023-03-14T00:11:51.359Z,980
2023-03-14T00:12:51.322Z,980
2023-03-14T00:13:51.327Z,980
2023-03-14T00:14:51.353Z,980
2023-03-14T00:15:51.367Z,980
2023-03-14T00:16:51.344Z,980
2023-03-14T00:17:51.320Z,980
2023-03-14T00:18:51.320Z,980
2023-03-14T00:19:51.413Z,980
2023-03-14T00:20:51.338Z,980
2023-03-14T00:21:51.336Z,980
2023-03-14T00:22:51.321Z,980
2023-03-14T00:23:51.382Z,980
2023-03-14T00:24:51.341Z,980
2023-03-14T00:25:51.326Z,980
2023-03-14T00:26:51.327Z,980
2023-03-14T00:27:51.384Z,980
2023-03-14T00:28:51.350Z,980
2023-03-14T00:29:51.342Z,980
2023-03-14T00:30:51.420Z,980
2023-03-14T00:31:51.334Z,980
2023-03-14T00:32:51.422Z,980
2023-03-14T00:33:51.331Z,980
2023-03-14T00:34:51.327Z,980
2023-03-14T00:35:51.365Z,980
2023-03-14T00:36:51.321Z,980
2023-03-14T00:37:51.327Z,980
2023-03-14T00:38:51.324Z,980
2023-03-14T00:39:51.307Z,980
2023-03-14T00:40:51.391Z,980
2023-03-14T00:41:51.318Z,980
2023-03-14T00:42:51.351Z,980
2023-03-14T00:43:51.336Z,980
2023-03-14T00:44:51.317Z,980
2023-03-14T00:45:51.338Z,980
2023-03-14T00:46:51.436Z,980
2023-03-14T00:47:51.325Z,980
2023-03-14T00:48:51.336Z,980
2023-03-14T00:49:51.326Z,980
2023-03-14T00:50:51.319Z,980
2023-03-14T00:51:51.366Z,980
2023-03-14T00:52:51.337Z,980
2023-03-14T00:53:51.353Z,980
2023-03-14T00:54:51.349Z,980
2023-03-14T00:55:51.379Z,980
2023-03-14T00:56:51.313Z,980
2023-03-14T00:57:51.384Z,980
2023-03-14T00:58:51.394Z,980
2023-03-14T00:59:51.363Z,980
2023-03-14T01:00:51.381Z,980
2023-03-14T01:01:51.420Z,980
2023-03-14T01:02:51.397Z,980
2023-03-14T01:03:51.328Z,980
2023-03-14T01:04:51.408Z,980
2023-03-14T01:05:51.398Z,980
2023-03-14T01:06:51.305Z,980
2023-03-14T01:07:51.336Z,980
2023-03-14T01:08:51.381Z,980
2023-03-14T01:09:51.316Z,980
2023-03-14T01:10:51.300Z,980
2023-03-14T01:11:51.314Z,980
2023-03-14T01:12:51.363Z,980
2023-03-14T01:13:51.360Z,980
2023-03-14T01:14:51.313Z,980
2023-03-14T01:15:51.351Z,980
2023-03-14T01:16:51.321Z,980
2023-03-14T01:17:51.326Z,980
2023-03-14T01:18:51.345Z,980
2023-03-14T01:19:51.382Z,980
2023-03-14T01:20:51.327Z,980
2023-03-14T01:21:51.321Z,980
2023-03-14T01:22:51.325Z,980
2023-03-14T01:23:51.342Z,980
2023-03-14T01:24:51.342Z,980
2023-03-14T01:25:51.319Z,980
2023-03-14T01:26:51.320Z,980
2023-03-14T01:27:51.345Z,980
2023-03-14T01:28:51.332Z,980
2023-03-14T01:29:51.331Z,980
2023-03-14T01:30:51.317Z,980
2023-03-14T01:31:51.423Z,980
2023-03-14T01:32:51.403Z,980
2023-03-14T01:33:51.343Z,980
2023-03-14T01:34:51.344Z,980
2023-03-14T01:35:51.562Z,980
2023-03-14T01:36:51.467Z,980
2023-03-14T01:37:51.588Z,980
2023-03-14T01:38:51.616Z,980
2023-03-14T01:39:51.561Z,980
2023-03-14T01:40:51.376Z,980
2023-03-14T01:41:51.411Z,980
2023-03-14T01:42:51.444Z,980
2023-03-14T01:43:51.436Z,980
2023-03-14T01:44:51.403Z,980
2023-03-14T01:45:51.369Z,980
2023-03-14T01:46:51.318Z,980
2023-03-14T01:47:51.330Z,980
2023-03-14T01:48:51.319Z,980
2023-03-14T01:49:51.354Z,980
2023-03-14T01:50:51.324Z,980
2023-03-14T01:51:51.363Z,980
2023-03-14T01:52:51.354Z,980
2023-03-14T01:53:51.336Z,980
2023-03-14T01:54:51.315Z,980
2023-03-14T01:55:51.322Z,980
2023-03-14T01:56:51.343Z,980
2023-03-14T01:57:51.355Z,980
2023-03-14T01:58:51.340Z,980
2023-03-14T01:59:51.336Z,980
2023-03-14T02:00:51.340Z,980
2023-03-14T02:01:51.331Z,980
2023-03-14T02:02:51.353Z,980
2023-03-14T02:03:51.428Z,980
2023-03-14T02:04:51.337Z,980
2023-03-14T02:05:51.325Z,980
2023-03-14T02:06:51.341Z,980
2023-03-14T02:07:51.355Z,980
2023-03-14T02:08:51.327Z,980
2023-03-14T02:09:51.336Z,980
2023-03-14T02:10:51.416Z,980
2023-03-14T02:11:51.346Z,980
2023-03-14T02:12:51.340Z,980
2023-03-14T02:13:51.368Z,980
2023-03-14T02:14:51.319Z,980
2023-03-14T02:15:51.361Z,980
2023-03-14T02:16:51.311Z,980
2023-03-14T02:17:51.337Z,980
2023-03-14T02:18:51.330Z,980
2023-03-14T02:19:51.318Z,980
2023-03-14T02:20:51.339Z,980
2023-03-14T02:21:51.332Z,980
2023-03-14T02:22:51.336Z,980
2023-03-14T02:23:51.325Z,980
2023-03-14T02:24:51.330Z,980
2023-03-14T02:25:51.316Z,980
2023-03-14T02:26:51.319Z,980
2023-03-14T02:27:51.337Z,980
2023-03-14T02:28:51.342Z,980
2023-03-14T02:29:51.323Z,980
2023-03-14T02:30:51.322Z,980
2023-03-14T02:31:51.448Z,980
2023-03-14T02:33:51.318Z,980
2023-03-14T02:34:51.310Z,980
2023-03-14T02:35:51.425Z,980
2023-03-14T02:36:51.334Z,980
2023-03-14T02:37:51.344Z,980
2023-03-14T02:38:51.330Z,980
2023-03-14T02:39:51.311Z,980
2023-03-14T02:40:51.318Z,980
2023-03-14T02:41:51.346Z,980
2023-03-14T02:42:51.354Z,980
2023-03-14T02:43:51.347Z,980
2023-03-14T02:44:51.320Z,980
2023-03-14T02:45:51.366Z,980
2023-03-14T02:46:51.333Z,980
2023-03-14T02:47:51.324Z,980
2023-03-14T02:48:51.321Z,980
2023-03-14T02:49:51.335Z,980
2023-03-14T02:50:51.328Z,980
2023-03-14T02:51:51.412Z,980
2023-03-14T02:52:51.334Z,980
2023-03-14T02:53:51.311Z,979
2023-03-14T02:54:51.320Z,979
2023-03-14T02:55:51.331Z,979
2023-03-14T02:56:51.348Z,979
2023-03-14T02:57:51.323Z,979
2023-03-14T02:58:51.337Z,979
2023-03-14T02:59:51.328Z,979
2023-03-14T03:00:51.334Z,979
2023-03-14T03:01:51.318Z,979
2023-03-14T03:02:51.327Z,979
2023-03-14T03:03:51.314Z,979
2023-03-14T03:04:51.313Z,979
2023-03-14T03:05:51.353Z,979
2023-03-14T03:06:51.320Z,979
2023-03-14T03:07:51.322Z,979
2023-03-14T03:08:51.319Z,979
2023-03-14T03:09:51.346Z,979
2023-03-14T03:10:51.326Z,979
2023-03-14T03:11:51.315Z,979
2023-03-14T03:12:51.369Z,979
2023-03-14T03:13:51.339Z,979
2023-03-14T03:14:51.324Z,979
2023-03-14T03:15:51.314Z,979
2023-03-14T03:16:51.342Z,979
2023-03-14T03:17:51.328Z,979
2023-03-14T03:18:51.329Z,979
2023-03-14T03:19:51.318Z,979
2023-03-14T03:20:51.323Z,979
2023-03-14T03:21:51.330Z,979
2023-03-14T03:22:51.398Z,979
2023-03-14T03:23:51.356Z,979
2023-03-14T03:24:51.330Z,979
2023-03-14T03:25:51.330Z,979
2023-03-14T03:26:51.335Z,979
2023-03-14T03:27:51.324Z,979
2023-03-14T03:28:51.340Z,979
2023-03-14T03:29:51.319Z,979
2023-03-14T03:30:51.372Z,979
2023-03-14T03:31:51.335Z,979
2023-03-14T03:32:51.405Z,979
2023-03-14T03:33:51.353Z,979
2023-03-14T03:34:51.334Z,979
2023-03-14T03:35:51.357Z,979
2023-03-14T03:36:51.334Z,979
2023-03-14T03:37:51.326Z,979
2023-03-14T03:38:51.353Z,979
2023-03-14T03:39:51.355Z,979
2023-03-14T03:40:51.334Z,979
2023-03-14T03:41:51.321Z,979
2023-03-14T03:42:51.324Z,979
2023-03-14T03:43:51.369Z,979
2023-03-14T03:44:51.344Z,979
2023-03-14T03:45:51.409Z,979
2023-03-14T03:46:51.338Z,979
2023-03-14T03:47:51.339Z,979
2023-03-14T03:48:51.463Z,979
2023-03-14T03:49:51.357Z,979
2023-03-14T03:50:51.343Z,979
2023-03-14T03:51:51.361Z,979
2023-03-14T03:52:51.335Z,979
2023-03-14T03:53:51.326Z,979
2023-03-14T03:54:51.328Z,979
2023-03-14T03:55:51.329Z,979
2023-03-14T03:56:51.332Z,979
2023-03-14T03:57:51.331Z,979
2023-03-14T03:58:51.378Z,979
2023-03-14T03:59:51.323Z,979
2023-03-14T04:00:51.328Z,979
2023-03-14T04:01:51.339Z,979
2023-03-14T04:02:51.378Z,979
2023-03-14T04:03:51.356Z,979
2023-03-14T04:04:51.335Z,979
2023-03-14T04:05:51.442Z,979
2023-03-14T04:06:51.318Z,979
2023-03-14T04:07:51.333Z,979
2023-03-14T04:08:51.321Z,979
2023-03-14T04:09:51.332Z,979
2023-03-14T04:10:51.326Z,979
2023-03-14T04:11:51.333Z,979
2023-03-14T04:12:51.342Z,979
2023-03-14T04:13:51.328Z,979
2023-03-14T04:14:51.335Z,979
2023-03-14T04:15:51.373Z,979
2023-03-14T04:16:51.345Z,979
2023-03-14T04:17:51.341Z,979
2023-03-14T04:18:51.320Z,979
2023-03-14T04:19:51.398Z,979
2023-03-14T04:20:51.332Z,979
2023-03-14T04:21:51.338Z,979
2023-03-14T04:22:51.327Z,979
2023-03-14T04:23:51.361Z,979
2023-03-14T04:24:51.397Z,979
2023-03-14T04:25:52.606Z,979
2023-03-14T04:26:51.339Z,979
2023-03-14T04:27:53.397Z,979
2023-03-14T04:28:51.376Z,979
2023-03-14T04:29:51.332Z,979
2023-03-14T04:30:51.379Z,979
2023-03-14T04:31:51.325Z,979
2023-03-14T04:32:51.409Z,979
2023-03-14T04:33:51.348Z,979
2023-03-14T04:34:51.327Z,979
2023-03-14T04:35:51.458Z,979
2023-03-14T04:36:51.331Z,979
2023-03-14T04:37:51.325Z,979
2023-03-14T04:38:51.336Z,979
2023-03-14T04:39:51.328Z,979
2023-03-14T04:40:51.352Z,979
2023-03-14T04:41:51.346Z,979
2023-03-14T04:42:51.349Z,979
2023-03-14T04:43:51.333Z,979
2023-03-14T04:44:51.348Z,979
2023-03-14T04:45:51.329Z,979
2023-03-14T04:46:51.402Z,979
2023-03-14T04:47:51.338Z,979
2023-03-14T04:48:51.350Z,979
2023-03-14T04:49:51.320Z,979
2023-03-14T04:50:51.360Z,979
2023-03-14T04:51:51.332Z,979
2023-03-14T04:52:51.340Z,979
2023-03-14T04:53:51.337Z,979
2023-03-14T04:54:51.329Z,979
2023-03-14T04:55:51.338Z,979
2023-03-14T04:56:51.337Z,979
2023-03-14T04:57:51.354Z,979
2023-03-14T04:58:51.350Z,979
2023-03-14T04:59:51.334Z,979
2023-03-14T05:00:51.343Z,978
2023-03-14T05:01:51.348Z,979
2023-03-14T05:02:51.420Z,978
2023-03-14T05:03:51.347Z,978
2023-03-14T05:04:51.330Z,978
2023-03-14T05:05:51.328Z,978
2023-03-14T05:06:51.318Z,978
2023-03-14T05:07:51.320Z,978
2023-03-14T05:08:51.321Z,978
2023-03-14T05:09:51.318Z,978
2023-03-14T05:10:51.330Z,978
2023-03-14T05:11:51.322Z,978
2023-03-14T05:12:51.334Z,978
2023-03-14T05:13:51.334Z,978
2023-03-14T05:14:51.323Z,978
2023-03-14T05:15:51.359Z,978
2023-03-14T05:16:51.320Z,978
2023-03-14T05:17:51.499Z,978
2023-03-14T05:18:51.323Z,978
2023-03-14T05:19:51.337Z,978
2023-03-14T05:20:51.325Z,978
2023-03-14T05:21:51.358Z,978
2023-03-14T05:22:51.323Z,978
2023-03-14T05:23:51.336Z,978
2023-03-14T05:24:51.335Z,978
2023-03-14T05:25:51.330Z,978
2023-03-14T05:26:51.319Z,978
2023-03-14T05:27:51.334Z,978
2023-03-14T05:28:51.327Z,978
2023-03-14T05:29:51.329Z,978
2023-03-14T05:30:51.335Z,978
2023-03-14T05:31:51.408Z,978
2023-03-14T05:32:51.362Z,978
2023-03-14T05:33:51.338Z,978
2023-03-14T05:34:51.425Z,978
2023-03-14T05:35:51.433Z,978
2023-03-14T05:36:51.340Z,978
2023-03-14T05:37:51.349Z,978
2023-03-14T05:38:51.334Z,978
2023-03-14T05:39:51.322Z,978
2023-03-14T05:40:51.333Z,978
2023-03-14T05:41:51.336Z,978
2023-03-14T05:42:51.339Z,978
2023-03-14T05:43:51.329Z,978
2023-03-14T05:44:51.338Z,978
2023-03-14T05:45:51.396Z,978
2023-03-14T05:46:51.341Z,978
2023-03-14T05:47:51.335Z,978
2023-03-14T05:48:51.332Z,978
2023-03-14T05:49:51.321Z,978
2023-03-14T05:50:51.332Z,978
2023-03-14T05:51:51.332Z,978
2023-03-14T05:52:51.509Z,978
2023-03-14T05:53:51.324Z,978
2023-03-14T05:54:51.321Z,978
2023-03-14T05:55:51.327Z,978
2023-03-14T05:56:51.374Z,978
2023-03-14T05:57:51.340Z,978
2023-03-14T05:58:51.331Z,978
2023-03-14T05:59:51.330Z,978
2023-03-14T06:00:51.330Z,978
2023-03-14T06:01:51.410Z,978
2023-03-14T06:02:51.395Z,978
2023-03-14T06:03:51.333Z,978
2023-03-14T06:04:51.361Z,978
2023-03-14T06:05:51.330Z,978
2023-03-14T06:06:51.356Z,978
2023-03-14T06:07:51.331Z,978
2023-03-14T06:08:51.321Z,978
2023-03-14T06:09:51.350Z,978
2023-03-14T06:10:51.334Z,978
2023-03-14T06:11:51.315Z,978
2023-03-14T06:12:51.341Z,978
2023-03-14T06:13:51.334Z,978
2023-03-14T06:14:51.335Z,978
2023-03-14T06:15:51.368Z,978
2023-03-14T06:16:51.375Z,978
2023-03-14T06:17:51.334Z,978
2023-03-14T06:18:51.338Z,978
2023-03-14T06:19:51.334Z,978
2023-03-14T06:20:51.348Z,978
2023-03-14T06:21:51.339Z,978
2023-03-14T06:22:51.328Z,978
2023-03-14T06:23:51.396Z,978
2023-03-14T06:24:51.332Z,978
2023-03-14T06:25:51.327Z,978
2023-03-14T06:26:51.357Z,978
2023-03-14T06:27:51.322Z,978
2023-03-14T06:28:51.337Z,978
2023-03-14T06:29:51.319Z,978
2023-03-14T06:30:51.399Z,978
2023-03-14T06:31:51.354Z,978
2023-03-14T06:32:51.489Z,978
2023-03-14T06:33:51.347Z,978
2023-03-14T06:34:51.335Z,978
2023-03-14T06:35:51.370Z,978
2023-03-14T06:36:51.366Z,978
2023-03-14T06:37:51.351Z,978
2023-03-14T06:38:51.340Z,978
2023-03-14T06:39:51.327Z,978
2023-03-14T06:40:51.325Z,978
2023-03-14T06:41:51.344Z,978
2023-03-14T06:42:51.381Z,978
2023-03-14T06:43:51.341Z,978
2023-03-14T06:44:51.330Z,978
2023-03-14T06:45:51.383Z,978
2023-03-14T06:46:51.324Z,978
2023-03-14T06:47:51.434Z,978
2023-03-14T06:48:51.359Z,978
2023-03-14T06:49:51.700Z,978
2023-03-14T06:50:51.345Z,978
2023-03-14T06:51:51.343Z,978
2023-03-14T06:52:51.532Z,978
2023-03-14T06:53:51.358Z,978
2023-03-14T06:54:51.362Z,978
2023-03-14T06:55:51.336Z,978
2023-03-14T06:56:51.338Z,978
2023-03-14T06:57:51.500Z,978
2023-03-14T06:58:51.359Z,978
2023-03-14T06:59:51.334Z,978
2023-03-14T07:00:51.335Z,978
2023-03-14T07:01:51.437Z,978
2023-03-14T07:02:51.458Z,978
2023-03-14T07:03:51.348Z,978
2023-03-14T07:04:51.395Z,978
2023-03-14T07:05:51.340Z,978
2023-03-14T07:06:51.345Z,978
2023-03-14T07:07:51.328Z,978
2023-03-14T07:08:51.357Z,978
2023-03-14T07:09:51.509Z,978
2023-03-14T07:10:51.364Z,978
2023-03-14T07:11:51.350Z,978
2023-03-14T07:12:51.390Z,978
2023-03-14T07:13:51.358Z,978
2023-03-14T07:14:51.335Z,978
2023-03-14T07:15:51.460Z,978
2023-03-14T07:16:51.348Z,978
2023-03-14T07:17:51.535Z,978
2023-03-14T07:18:51.354Z,978
2023-03-14T07:19:51.372Z,978
2023-03-14T07:20:51.706Z,978
2023-03-14T07:21:51.349Z,978
2023-03-14T07:22:51.345Z,978
2023-03-14T07:23:51.344Z,978
2023-03-14T07:24:51.337Z,978
2023-03-14T07:25:51.365Z,978
2023-03-14T07:26:51.333Z,978
2023-03-14T07:27:51.406Z,978
2023-03-14T07:28:51.346Z,978
2023-03-14T07:29:51.347Z,978
2023-03-14T07:30:51.407Z,978
2023-03-14T07:31:51.351Z,978
2023-03-14T07:32:52.245Z,978
2023-03-14T07:33:51.339Z,978
2023-03-14T07:34:51.357Z,978
2023-03-14T07:35:51.357Z,978
2023-03-14T07:36:51.348Z,978
2023-03-14T07:37:51.349Z,978
2023-03-14T07:38:51.348Z,978
2023-03-14T07:39:51.333Z,978
2023-03-14T07:40:51.342Z,978
2023-03-14T07:41:51.339Z,978
2023-03-14T07:42:51.366Z,978
2023-03-14T07:43:51.349Z,978
2023-03-14T07:44:51.346Z,978
2023-03-14T07:45:58.639Z,978
2023-03-14T07:46:51.391Z,978
2023-03-14T07:47:51.357Z,978
2023-03-14T07:48:51.336Z,978
2023-03-14T07:49:51.349Z,978
2023-03-14T07:50:51.349Z,978
2023-03-14T07:51:51.358Z,978
2023-03-14T07:52:51.353Z,978
2023-03-14T07:53:51.354Z,978
2023-03-14T07:54:51.348Z,978
2023-03-14T07:55:51.335Z,978
2023-03-14T07:56:51.387Z,978
2023-03-14T07:57:51.338Z,978
2023-03-14T07:58:51.352Z,978
2023-03-14T07:59:51.340Z,978
2023-03-14T08:00:51.364Z,978
2023-03-14T08:01:51.427Z,978
2023-03-14T08:02:51.400Z,978
2023-03-14T08:03:51.509Z,978
2023-03-14T08:04:51.347Z,978
2023-03-14T08:05:51.354Z,978
2023-03-14T08:06:51.349Z,978
2023-03-14T08:07:51.369Z,978
2023-03-14T08:08:51.350Z,978
2023-03-14T08:09:51.360Z,978
2023-03-14T08:10:51.337Z,978
2023-03-14T08:11:51.372Z,978
2023-03-14T08:12:51.368Z,978
2023-03-14T08:14:51.370Z,978
2023-03-14T08:15:51.378Z,978
2023-03-14T08:16:51.346Z,978
2023-03-14T08:17:51.354Z,978
2023-03-14T08:18:51.455Z,978
2023-03-14T08:19:51.363Z,978
2023-03-14T08:20:51.345Z,978
2023-03-14T08:21:51.361Z,978
2023-03-14T08:22:51.366Z,978
2023-03-14T08:23:51.370Z,978
2023-03-14T08:24:51.340Z,978
2023-03-14T08:25:51.350Z,978
2023-03-14T08:26:51.351Z,978
2023-03-14T08:27:51.399Z,978
2023-03-14T08:28:51.352Z,978
2023-03-14T08:29:51.360Z,978
2023-03-14T08:30:51.418Z,978
2023-03-14T08:31:51.503Z,978
2023-03-14T08:32:51.556Z,978
2023-03-14T08:33:51.346Z,978
2023-03-14T08:34:51.358Z,978
2023-03-14T08:35:51.410Z,978
2023-03-14T08:36:51.371Z,978
2023-03-14T08:37:51.348Z,978
2023-03-14T08:38:51.385Z,979
2023-03-14T08:39:51.353Z,978
2023-03-14T08:40:51.349Z,978
2023-03-14T08:41:51.371Z,978
2023-03-14T08:42:51.360Z,979
2023-03-14T08:43:51.366Z,979
2023-03-14T08:44:51.359Z,979
2023-03-14T08:46:51.399Z,979
2023-03-14T08:47:51.363Z,978
2023-03-14T08:48:51.341Z,978
2023-03-14T08:49:51.409Z,978
2023-03-14T08:50:51.349Z,978
2023-03-14T08:51:51.355Z,978
2023-03-14T08:52:51.434Z,978
2023-03-14T08:53:51.351Z,978
2023-03-14T08:54:51.354Z,978
2023-03-14T08:55:51.338Z,979
2023-03-14T08:56:51.353Z,979
2023-03-14T08:57:51.353Z,979
2023-03-14T08:58:51.403Z,979
2023-03-14T08:59:51.354Z,979
2023-03-14T09:00:51.398Z,979
2023-03-14T09:01:51.357Z,979
2023-03-14T09:02:51.379Z,979
2023-03-14T09:03:51.394Z,979
2023-03-14T09:04:51.359Z,979
2023-03-14T09:05:51.370Z,979
2023-03-14T09:06:51.378Z,979
2023-03-14T09:07:51.360Z,979
2023-03-14T09:08:51.342Z,979
2023-03-14T09:09:51.349Z,979
2023-03-14T09:10:51.358Z,979
2023-03-14T09:11:51.356Z,979
2023-03-14T09:12:51.359Z,979
2023-03-14T09:13:51.343Z,979
2023-03-14T09:14:51.356Z,979
2023-03-14T09:15:51.368Z,979
2023-03-14T09:16:51.384Z,979
2023-03-14T09:17:51.386Z,979
2023-03-14T09:18:51.355Z,979
2023-03-14T09:19:51.357Z,979
2023-03-14T09:20:51.371Z,979
2023-03-14T09:21:51.366Z,979
2023-03-14T09:22:51.500Z,979
2023-03-14T09:23:51.361Z,979
2023-03-14T09:24:51.350Z,979
2023-03-14T09:25:51.370Z,979
2023-03-14T09:26:51.351Z,979
2023-03-14T09:27:51.368Z,979
2023-03-14T09:28:51.348Z,979
2023-03-14T09:29:51.464Z,979
2023-03-14T09:30:51.355Z,979
2023-03-14T09:31:51.473Z,979
2023-03-14T09:32:51.410Z,979
2023-03-14T09:33:51.413Z,979
2023-03-14T09:34:51.370Z,979
2023-03-14T09:35:51.450Z,979
2023-03-14T09:36:51.358Z,979
2023-03-14T09:37:51.363Z,979
2023-03-14T09:38:51.353Z,979
2023-03-14T09:39:51.387Z,979
2023-03-14T09:40:51.353Z,979
2023-03-14T09:41:51.418Z,979
2023-03-14T09:42:51.360Z,979
2023-03-14T09:43:51.366Z,979
2023-03-14T09:44:51.379Z,979
2023-03-14T09:45:51.369Z,979
2023-03-14T09:46:51.364Z,979
2023-03-14T09:47:59.230Z,979
2023-03-14T09:48:51.360Z,979
2023-03-14T09:49:51.363Z,979
2023-03-14T09:50:51.353Z,979
2023-03-14T09:51:51.351Z,979
2023-03-14T09:52:51.355Z,979
2023-03-14T09:53:51.350Z,979
2023-03-14T09:54:51.360Z,979
2023-03-14T09:55:51.351Z,980
2023-03-14T09:56:51.344Z,980
2023-03-14T09:57:51.351Z,980
2023-03-14T09:58:51.359Z,980
2023-03-14T09:59:51.350Z,980
2023-03-14T10:00:51.461Z,980
2023-03-14T10:01:51.443Z,980
2023-03-14T10:02:51.371Z,980
2023-03-14T10:03:51.403Z,980
2023-03-14T10:04:51.433Z,981
2023-03-14T10:05:51.374Z,981
2023-03-14T10:06:51.385Z,981
2023-03-14T10:07:51.389Z,981
2023-03-14T10:08:51.355Z,981
2023-03-14T10:09:51.346Z,981
2023-03-14T10:10:51.366Z,981
2023-03-14T10:11:51.358Z,981
2023-03-14T10:12:54.284Z,981
2023-03-14T10:13:51.346Z,981
2023-03-14T10:14:51.363Z,981
2023-03-14T10:15:51.368Z,981
2023-03-14T10:16:51.460Z,981
2023-03-14T10:17:51.363Z,981
2023-03-14T10:18:51.356Z,981
2023-03-14T10:19:51.424Z,981
2023-03-14T10:20:51.353Z,982
2023-03-14T10:21:51.346Z,982
2023-03-14T10:22:51.350Z,982
2023-03-14T10:23:51.355Z,982
2023-03-14T10:24:51.348Z,982
2023-03-14T10:25:51.346Z,982
2023-03-14T10:26:51.350Z,982
2023-03-14T10:27:51.355Z,982
2023-03-14T10:28:51.363Z,982
2023-03-14T10:29:51.356Z,982
2023-03-14T10:30:51.412Z,982
2023-03-14T10:32:51.410Z,982
2023-03-14T10:33:51.369Z,982
2023-03-14T10:34:51.376Z,982
2023-03-14T10:35:51.432Z,982
2023-03-14T10:36:51.354Z,982
2023-03-14T10:37:51.384Z,982
2023-03-14T10:38:51.367Z,982
2023-03-14T10:39:51.356Z,982
2023-03-14T10:40:51.362Z,982
2023-03-14T10:41:51.349Z,982
2023-03-14T10:42:51.350Z,982
2023-03-14T10:43:51.382Z,982
2023-03-14T10:44:51.364Z,982
2023-03-14T10:45:51.393Z,982
2023-03-14T10:46:51.353Z,983
2023-03-14T10:47:51.359Z,983
2023-03-14T10:48:51.385Z,983
2023-03-14T10:49:51.365Z,983
2023-03-14T10:50:51.361Z,983
2023-03-14T10:51:51.348Z,983
2023-03-14T10:53:02.011Z,983
2023-03-14T10:53:51.357Z,983
2023-03-14T10:54:51.370Z,983
2023-03-14T10:55:51.367Z,983
2023-03-14T10:56:51.354Z,983
2023-03-14T10:57:51.377Z,983
2023-03-14T10:58:51.384Z,983
2023-03-14T10:59:51.363Z,983
2023-03-14T11:00:51.352Z,983
2023-03-14T11:01:51.420Z,983
2023-03-14T11:02:51.398Z,983
2023-03-14T11:03:51.399Z,983
2023-03-14T11:04:51.406Z,983
2023-03-14T11:05:51.344Z,983
2023-03-14T11:06:51.370Z,983
2023-03-14T11:07:51.352Z,983
2023-03-14T11:08:51.373Z,983
2023-03-14T11:09:51.429Z,983
2023-03-14T11:10:51.355Z,983
2023-03-14T11:11:51.359Z,983
2023-03-14T11:12:51.357Z,983
2023-03-14T11:13:51.377Z,983
2023-03-14T11:14:51.364Z,983
2023-03-14T11:15:51.387Z,983
2023-03-14T11:16:51.367Z,983
2023-03-14T11:17:51.358Z,983
2023-03-14T11:18:51.400Z,983
2023-03-14T11:19:51.423Z,983
2023-03-14T11:20:51.353Z,983
2023-03-14T11:21:51.361Z,983
2023-03-14T11:22:51.383Z,984
2023-03-14T11:23:51.352Z,984
2023-03-14T11:24:51.350Z,984
2023-03-14T11:25:51.364Z,984
2023-03-14T11:26:51.381Z,984
2023-03-14T11:27:51.369Z,984
2023-03-14T11:28:51.366Z,984
2023-03-14T11:29:51.362Z,984
2023-03-14T11:30:51.455Z,984
2023-03-14T11:31:51.363Z,984
2023-03-14T11:32:51.474Z,984
2023-03-14T11:33:51.443Z,984
2023-03-14T11:34:51.346Z,984
2023-03-14T11:35:51.382Z,984
2023-03-14T11:36:51.575Z,984
2023-03-14T11:37:51.739Z,984
2023-03-14T11:38:51.730Z,984
2023-03-14T11:39:51.454Z,984
2023-03-14T11:40:51.458Z,984
2023-03-14T11:41:51.378Z,984
2023-03-14T11:42:51.362Z,984
2023-03-14T11:43:51.386Z,984
2023-03-14T11:44:51.362Z,984
2023-03-14T11:45:51.347Z,984
2023-03-14T11:46:51.481Z,984
2023-03-14T11:47:51.386Z,984
2023-03-14T11:48:51.396Z,984
2023-03-14T11:49:51.365Z,984
2023-03-14T11:50:51.366Z,984
2023-03-14T11:51:51.361Z,984
2023-03-14T11:52:51.370Z,984
2023-03-14T11:53:51.834Z,984
2023-03-14T11:54:51.373Z,984
2023-03-14T11:55:51.373Z,984
2023-03-14T11:56:51.397Z,984
2023-03-14T11:57:51.343Z,984
2023-03-14T11:58:51.367Z,984
2023-03-14T11:59:51.365Z,984
2023-03-14T12:00:51.368Z,984
2023-03-14T12:01:51.416Z,984
2023-03-14T12:02:51.356Z,984
2023-03-14T12:03:51.433Z,984
2023-03-14T12:04:51.525Z,985
2023-03-14T12:05:51.356Z,985
2023-03-14T12:06:51.374Z,985
2023-03-14T12:07:51.357Z,985
2023-03-14T12:08:51.375Z,985
2023-03-14T12:09:51.339Z,985
2023-03-14T12:10:51.355Z,985
2023-03-14T12:11:51.361Z,985
2023-03-14T12:12:51.357Z,985
2023-03-14T12:13:51.378Z,985
2023-03-14T12:14:51.356Z,985
2023-03-14T12:15:51.401Z,985
2023-03-14T12:16:51.536Z,985
2023-03-14T12:17:51.350Z,985
2023-03-14T12:18:51.380Z,985
2023-03-14T12:19:51.364Z,985
2023-03-14T12:20:51.350Z,985
2023-03-14T12:21:51.357Z,985
2023-03-14T12:22:51.386Z,985
2023-03-14T12:23:51.365Z,985
2023-03-14T12:24:51.357Z,985
2023-03-14T12:25:51.366Z,985
2023-03-14T12:26:51.339Z,985
2023-03-14T12:27:51.357Z,985
2023-03-14T12:28:51.392Z,985
2023-03-14T12:29:51.359Z,985
2023-03-14T12:30:51.352Z,985
2023-03-14T12:31:51.425Z,985
2023-03-14T12:32:51.444Z,986
2023-03-14T12:33:51.400Z,986
2023-03-14T12:34:51.348Z,986
2023-03-14T12:35:51.493Z,986
2023-03-14T12:36:51.471Z,986
2023-03-14T12:37:51.656Z,986
2023-03-14T12:38:51.369Z,986
2023-03-14T12:39:51.361Z,986
2023-03-14T12:40:51.353Z,986
2023-03-14T12:41:51.361Z,986
2023-03-14T12:42:51.354Z,986
2023-03-14T12:43:51.409Z,986
2023-03-14T12:44:51.345Z,986
2023-03-14T12:45:51.381Z,986
2023-03-14T12:46:51.354Z,986
2023-03-14T12:47:51.361Z,986
2023-03-14T12:48:51.415Z,986
2023-03-14T12:49:51.353Z,986
2023-03-14T12:50:51.353Z,986
2023-03-14T12:51:51.344Z,986
2023-03-14T12:52:51.350Z,986
2023-03-14T12:53:51.342Z,986
2023-03-14T12:54:51.349Z,986
2023-03-14T12:55:51.409Z,986
2023-03-14T12:56:51.344Z,986
2023-03-14T12:57:51.346Z,986
2023-03-14T12:58:51.372Z,987
2023-03-14T12:59:51.346Z,987
2023-03-14T13:00:51.481Z,987
2023-03-14T13:01:51.346Z,987
2023-03-14T13:02:51.364Z,987
2023-03-14T13:03:51.472Z,987
2023-03-14T13:04:51.364Z,987
2023-03-14T13:05:51.346Z,987
2023-03-14T13:06:51.408Z,987
2023-03-14T13:07:51.360Z,987
2023-03-14T13:08:51.456Z,987
2023-03-14T13:09:51.356Z,987
2023-03-14T13:10:51.379Z,987
2023-03-14T13:11:51.358Z,987
2023-03-14T13:12:51.349Z,987
2023-03-14T13:13:51.380Z,987
2023-03-14T13:14:51.349Z,987
2023-03-14T13:15:52.147Z,987
2023-03-14T13:16:51.396Z,987
2023-03-14T13:17:51.419Z,987
2023-03-14T13:18:51.384Z,987
2023-03-14T13:19:51.354Z,987
2023-03-14T13:20:51.363Z,987
2023-03-14T13:21:51.357Z,987
2023-03-14T13:22:51.363Z,987
2023-03-14T13:23:51.347Z,987
2023-03-14T13:24:51.354Z,987
2023-03-14T13:25:51.362Z,987
2023-03-14T13:26:51.347Z,987
2023-03-14T13:27:51.364Z,987
2023-03-14T13:28:51.383Z,987
2023-03-14T13:29:51.351Z,987
2023-03-14T13:30:51.430Z,987
2023-03-14T13:31:51.356Z,987
2023-03-14T13:32:51.483Z,987
2023-03-14T13:33:51.398Z,987
2023-03-14T13:34:51.357Z,987
2023-03-14T13:35:51.413Z,987
2023-03-14T13:36:51.388Z,987
2023-03-14T13:37:53.270Z,987
2023-03-14T13:38:51.583Z,988
2023-03-14T13:39:51.456Z,988
2023-03-14T13:40:51.346Z,988
2023-03-14T13:41:51.376Z,988
2023-03-14T13:42:51.372Z,988
2023-03-14T13:43:51.360Z,988
2023-03-14T13:44:51.344Z,988
2023-03-14T13:45:51.499Z,988
2023-03-14T13:46:51.350Z,988
2023-03-14T13:47:51.351Z,988
2023-03-14T13:48:51.351Z,988
2023-03-14T13:49:51.360Z,988
2023-03-14T13:50:51.353Z,988